createdAt,value
2019-02-11T00:00:44.864Z,1.10
2019-02-11T00:01:44.923Z,1.10
2019-02-11T00:02:44.791Z,1.30
2019-02-11T00:03:44.775Z,1.00
2019-02-11T00:04:44.744Z,1.20
2019-02-11T00:05:44.771Z,1.30
2019-02-11T00:06:44.670Z,1.10
2019-02-11T00:07:44.751Z,1.30
2019-02-11T00:08:44.614Z,1.20
2019-02-11T00:09:44.586Z,1.10
2019-02-11T00:10:44.562Z,1.20
2019-02-11T00:11:44.526Z,1.20
2019-02-11T00:12:44.592Z,1.10
2019-02-11T00:13:44.454Z,1.10
2019-02-11T00:14:44.424Z,1.10
2019-02-11T00:15:44.420Z,1.00
2019-02-11T00:16:44.403Z,1.10
2019-02-11T00:17:44.337Z,1.10
2019-02-11T00:18:44.412Z,1.00
2019-02-11T00:19:44.277Z,1.20
2019-02-11T00:20:44.243Z,1.20
2019-02-11T00:21:44.229Z,1.00
2019-02-11T00:22:44.184Z,1.30
2019-02-11T00:23:44.274Z,1.30
2019-02-11T00:24:44.119Z,1.20
2019-02-11T00:25:44.081Z,1.10
2019-02-11T00:26:44.053Z,1.40
2019-02-11T00:27:44.063Z,1.20
2019-02-11T00:28:43.990Z,1.20
2019-02-11T00:29:44.071Z,1.20
2019-02-11T00:30:43.932Z,1.10
2019-02-11T00:31:43.901Z,1.20
2019-02-11T00:32:43.902Z,1.30
2019-02-11T00:33:43.902Z,1.20
2019-02-11T00:34:43.800Z,1.30
2019-02-11T00:35:43.802Z,1.20
2019-02-11T00:36:43.740Z,1.20
2019-02-11T00:37:43.813Z,1.20
2019-02-11T00:38:43.680Z,1.20
2019-02-11T00:39:43.721Z,1.30
2019-02-11T00:40:43.627Z,1.20
2019-02-11T00:41:43.630Z,1.30
2019-02-11T00:42:43.673Z,1.20
2019-02-11T00:43:43.532Z,1.40
2019-02-11T00:44:43.552Z,1.40
2019-02-11T00:45:43.481Z,1.30
2019-02-11T00:46:43.464Z,1.30
2019-02-11T00:47:43.402Z,1.40
2019-02-11T00:48:43.381Z,1.20
2019-02-11T00:49:43.393Z,1.40
2019-02-11T00:50:43.312Z,1.50
2019-02-11T00:51:43.393Z,1.60
2019-02-11T00:52:43.250Z,1.50
2019-02-11T00:53:43.222Z,1.20
2019-02-11T00:54:43.191Z,1.60
2019-02-11T00:55:43.212Z,1.40
2019-02-11T00:56:43.120Z,1.50
2019-02-11T00:57:43.125Z,1.40
2019-02-11T00:58:43.069Z,1.50
2019-02-11T00:59:43.035Z,1.30
2019-02-11T01:00:43.033Z,1.30
2019-02-11T01:01:42.996Z,1.50
2019-02-11T01:02:43.056Z,1.30
2019-02-11T01:03:42.912Z,1.40
2019-02-11T01:04:42.881Z,1.50
2019-02-11T01:05:42.849Z,1.60
2019-02-11T01:06:42.870Z,1.40
2019-02-11T01:07:42.791Z,1.40
2019-02-11T01:08:42.783Z,1.30
2019-02-11T01:09:42.720Z,1.20
2019-02-11T01:10:42.693Z,1.40
2019-02-11T01:11:42.690Z,1.30
2019-02-11T01:12:42.651Z,1.10
2019-02-11T01:13:42.716Z,1.40
2019-02-11T01:14:42.577Z,1.30
2019-02-11T01:15:42.543Z,1.30
2019-02-11T01:16:42.511Z,1.30
2019-02-11T01:17:42.529Z,1.30
2019-02-11T01:18:42.463Z,1.30
2019-02-11T01:19:42.442Z,1.10
2019-02-11T01:20:42.391Z,1.20
2019-02-11T01:21:42.367Z,1.40
2019-02-11T01:22:42.354Z,1.50
2019-02-11T01:23:42.302Z,1.20
2019-02-11T01:24:42.370Z,1.50
2019-02-11T01:25:42.230Z,1.40
2019-02-11T01:26:42.292Z,1.50
2019-02-11T01:27:42.180Z,1.50
2019-02-11T01:28:42.192Z,1.50
2019-02-11T01:29:42.116Z,1.50
2019-02-11T01:30:42.102Z,1.40
2019-02-11T01:31:42.050Z,1.80
2019-02-11T01:32:42.023Z,1.50
2019-02-11T01:33:42.012Z,1.80
2019-02-11T01:34:41.965Z,1.90
2019-02-11T01:35:42.025Z,1.60
2019-02-11T01:36:41.902Z,1.80
2019-02-11T01:37:41.937Z,2.00
2019-02-11T01:38:41.830Z,2.20
2019-02-11T01:39:41.845Z,2.30
2019-02-11T01:40:41.773Z,2.80
2019-02-11T01:41:41.760Z,2.60
2019-02-11T01:42:41.713Z,2.80
2019-02-11T01:43:41.682Z,2.60
2019-02-11T01:44:41.654Z,2.60
2019-02-11T01:45:41.682Z,3.30
2019-02-11T01:46:41.594Z,3.10
2019-02-11T01:47:41.595Z,3.30
2019-02-11T01:48:41.532Z,3.20
2019-02-11T01:49:41.492Z,3.50
2019-02-11T01:50:41.462Z,3.40
2019-02-11T01:51:41.511Z,3.50
2019-02-11T01:52:41.419Z,3.40
2019-02-11T01:53:41.420Z,3.80
2019-02-11T01:54:41.340Z,3.70
2019-02-11T01:55:41.338Z,3.90
2019-02-11T01:56:41.282Z,3.60
2019-02-11T01:57:41.341Z,3.60
2019-02-11T01:58:41.222Z,3.60
2019-02-11T01:59:41.252Z,3.50
2019-02-11T02:00:41.161Z,3.50
2019-02-11T02:01:41.132Z,3.80
2019-02-11T02:02:41.178Z,3.80
2019-02-11T02:03:41.062Z,3.60
2019-02-11T02:04:41.084Z,3.80
2019-02-11T02:05:41.002Z,3.70
2019-02-11T02:06:40.981Z,3.50
2019-02-11T02:07:41.001Z,3.70
2019-02-11T02:08:40.922Z,3.40
2019-02-11T02:09:40.911Z,3.70
2019-02-11T02:10:40.852Z,4.10
2019-02-11T02:11:40.824Z,3.60
2019-02-11T02:12:40.833Z,3.10
2019-02-11T02:13:44.919Z,3.40
2019-02-11T02:14:40.855Z,3.30
2019-02-11T02:15:40.702Z,3.30
2019-02-11T02:16:40.754Z,3.60
2019-02-11T02:17:40.633Z,3.30
2019-02-11T02:18:40.665Z,3.10
2019-02-11T02:19:40.584Z,3.30
2019-02-11T02:20:40.601Z,3.40
2019-02-11T02:21:40.514Z,3.20
2019-02-11T02:22:40.493Z,3.40
2019-02-11T02:23:40.487Z,3.30
2019-02-11T02:24:40.434Z,3.30
2019-02-11T02:25:40.495Z,3.30
2019-02-11T02:26:40.365Z,3.20
2019-02-11T02:27:40.415Z,3.20
2019-02-11T02:28:40.302Z,3.30
2019-02-11T02:29:40.323Z,3.10
2019-02-11T02:30:47.202Z,2.90
2019-02-11T02:31:40.254Z,3.40
2019-02-11T02:32:40.174Z,3.20
2019-02-11T02:33:40.144Z,3.00
2019-02-11T02:34:40.115Z,3.00
2019-02-11T02:35:40.153Z,2.90
2019-02-11T02:36:40.055Z,2.90
2019-02-11T02:37:40.061Z,3.00
2019-02-11T02:38:39.993Z,2.70
2019-02-11T02:39:39.967Z,2.50
2019-02-11T02:40:40.002Z,2.60
2019-02-11T02:41:39.897Z,2.70
2019-02-11T02:42:39.891Z,2.40
2019-02-11T02:43:39.834Z,2.40
2019-02-11T02:44:39.800Z,2.40
2019-02-11T02:45:39.786Z,2.20
2019-02-11T02:46:39.814Z,2.20
2019-02-11T02:47:39.732Z,2.30
2019-02-11T02:48:39.723Z,2.30
2019-02-11T02:49:39.668Z,2.20
2019-02-11T02:50:39.634Z,2.00
2019-02-11T02:51:39.593Z,2.20
2019-02-11T02:52:39.642Z,2.10
2019-02-11T02:53:39.543Z,2.10
2019-02-11T02:54:39.551Z,1.70
2019-02-11T02:55:39.463Z,1.90
2019-02-11T02:56:39.473Z,1.90
2019-02-11T02:57:39.400Z,1.90
2019-02-11T02:58:39.473Z,2.20
2019-02-11T02:59:39.343Z,2.00
2019-02-11T03:00:39.383Z,1.90
2019-02-11T03:01:39.285Z,1.90
2019-02-11T03:02:39.310Z,2.50
2019-02-11T03:03:39.222Z,2.20
2019-02-11T03:04:39.227Z,2.80
2019-02-11T03:05:39.158Z,2.70
2019-02-11T03:06:39.224Z,3.10
2019-02-11T03:07:39.111Z,3.20
2019-02-11T03:08:39.132Z,3.80
2019-02-11T03:09:39.033Z,3.90
2019-02-11T03:10:39.056Z,4.40
2019-02-11T03:11:38.974Z,4.70
2019-02-11T03:12:38.943Z,5.30
2019-02-11T03:13:38.911Z,5.60
2019-02-11T03:14:38.965Z,5.50
2019-02-11T03:15:38.858Z,6.00
2019-02-11T03:16:38.875Z,6.30
2019-02-11T03:17:38.796Z,6.80
2019-02-11T03:18:38.762Z,6.90
2019-02-11T03:19:38.794Z,6.30
2019-02-11T03:20:38.703Z,6.70
2019-02-11T03:21:38.701Z,7.00
2019-02-11T03:22:38.648Z,7.20
2019-02-11T03:23:38.616Z,7.60
2019-02-11T03:24:38.574Z,7.60
2019-02-11T03:25:38.623Z,7.60
2019-02-11T03:26:38.519Z,7.50
2019-02-11T03:27:38.532Z,7.80
2019-02-11T03:28:38.454Z,7.90
2019-02-11T03:29:38.425Z,8.20
2019-02-11T03:30:38.456Z,8.50
2019-02-11T03:31:38.364Z,8.00
2019-02-11T03:32:38.380Z,7.90
2019-02-11T03:33:38.302Z,7.80
2019-02-11T03:34:38.289Z,7.70
2019-02-11T03:35:38.254Z,8.70
2019-02-11T03:36:38.281Z,7.80
2019-02-11T03:37:38.193Z,7.90
2019-02-11T03:38:38.193Z,8.10
2019-02-11T03:39:38.113Z,7.70
2019-02-11T03:40:38.089Z,7.90
2019-02-11T03:41:38.063Z,7.40
2019-02-11T03:42:38.115Z,7.50
2019-02-11T03:43:37.991Z,7.60
2019-02-11T03:44:39.055Z,7.10
2019-02-11T03:45:37.932Z,6.80
2019-02-11T03:46:37.931Z,7.10
2019-02-11T03:47:37.872Z,6.40
2019-02-11T03:48:38.878Z,6.30
2019-02-11T03:49:37.829Z,6.50
2019-02-11T03:50:37.863Z,6.50
2019-02-11T03:51:37.751Z,6.60
2019-02-11T03:52:37.729Z,6.10
2019-02-11T03:53:37.769Z,6.00
2019-02-11T03:54:45.020Z,6.10
2019-02-11T03:56:41.650Z,5.90
2019-02-11T03:57:41.551Z,5.90
2019-02-11T03:59:45.500Z,5.80
2019-02-11T04:00:45.534Z,5.40
2019-02-11T04:01:45.429Z,6.30
2019-02-11T04:02:45.399Z,5.80
2019-02-11T04:03:45.371Z,5.50
2019-02-11T04:04:45.452Z,5.80
2019-02-11T04:05:45.312Z,5.90
2019-02-11T04:06:45.360Z,5.20
2019-02-11T04:07:45.243Z,5.40
2019-02-11T04:08:45.283Z,5.30
2019-02-11T04:09:45.182Z,4.60
2019-02-11T04:10:45.180Z,5.00
2019-02-11T04:11:45.131Z,5.40
2019-02-11T04:12:45.189Z,5.50
2019-02-11T04:13:45.100Z,5.20
2019-02-11T04:14:45.030Z,5.20
2019-02-11T04:15:45.111Z,4.90
2019-02-11T04:16:44.982Z,4.70
2019-02-11T04:17:45.032Z,4.90
2019-02-11T04:18:44.911Z,4.40
2019-02-11T04:19:44.881Z,4.40
2019-02-11T04:20:44.940Z,4.60
2019-02-11T04:21:44.823Z,4.80
2019-02-11T04:22:44.850Z,5.30
2019-02-11T04:23:44.770Z,4.70
2019-02-11T04:24:44.719Z,4.60
2019-02-11T04:25:44.694Z,4.80
2019-02-11T04:26:44.783Z,4.60
2019-02-11T04:27:44.643Z,5.30
2019-02-11T04:28:44.695Z,4.50
2019-02-11T04:29:44.574Z,5.10
2019-02-11T04:30:44.547Z,4.70
2019-02-11T04:31:44.512Z,4.30
2019-02-11T04:32:44.511Z,4.20
2019-02-11T04:33:44.449Z,4.50
2019-02-11T04:34:44.522Z,4.50
2019-02-11T04:35:44.394Z,4.70
2019-02-11T04:36:44.422Z,4.60
2019-02-11T04:37:44.332Z,4.50
2019-02-11T04:38:44.340Z,4.60
2019-02-11T04:39:44.272Z,4.60
2019-02-11T04:40:44.361Z,4.70
2019-02-11T04:41:44.250Z,4.30
2019-02-11T04:42:44.181Z,4.70
2019-02-11T04:43:44.160Z,4.30
2019-02-11T04:44:44.112Z,4.90
2019-02-11T04:45:44.182Z,4.50
2019-02-11T04:46:44.052Z,4.60
2019-02-11T04:47:44.021Z,5.00
2019-02-11T04:48:44.090Z,4.60
2019-02-11T04:49:43.963Z,4.60
2019-02-11T04:50:44.001Z,4.60
2019-02-11T04:51:43.913Z,4.30
2019-02-11T04:52:43.872Z,5.00
2019-02-11T04:53:43.843Z,4.90
2019-02-11T04:54:43.947Z,4.20
2019-02-11T04:55:43.782Z,4.60
2019-02-11T04:56:43.831Z,4.40
2019-02-11T04:57:43.720Z,4.70
2019-02-11T04:58:43.692Z,4.70
2019-02-11T04:59:43.753Z,5.10
2019-02-11T05:00:43.621Z,4.70
2019-02-11T05:01:43.662Z,4.50
2019-02-11T05:02:43.563Z,4.90
2019-02-11T05:03:43.532Z,4.60
2019-02-11T05:04:43.581Z,4.40
2019-02-11T05:05:43.474Z,5.00
2019-02-11T05:06:43.493Z,4.60
2019-02-11T05:07:43.411Z,5.00
2019-02-11T05:08:43.403Z,5.00
2019-02-11T05:09:43.353Z,4.40
2019-02-11T05:10:43.412Z,4.80
2019-02-11T05:11:43.292Z,5.40
2019-02-11T05:12:43.322Z,4.20
2019-02-11T05:13:43.242Z,4.70
2019-02-11T05:14:44.341Z,4.60
2019-02-11T05:15:43.162Z,4.40
2019-02-11T05:16:43.240Z,4.40
2019-02-11T05:17:43.099Z,4.60
2019-02-11T05:18:43.163Z,5.20
2019-02-11T05:19:43.041Z,4.40
2019-02-11T05:20:43.013Z,4.60
2019-02-11T05:21:42.983Z,4.20
2019-02-11T05:22:43.089Z,5.00
2019-02-11T05:23:42.933Z,4.60
2019-02-11T05:24:42.981Z,4.60
2019-02-11T05:25:42.861Z,4.90
2019-02-11T05:26:42.904Z,5.10
2019-02-11T05:27:42.802Z,4.70
2019-02-11T05:28:42.813Z,4.20
2019-02-11T05:29:42.731Z,4.60
2019-02-11T05:30:42.823Z,5.00
2019-02-11T05:31:42.721Z,4.70
2019-02-11T05:32:42.642Z,4.40
2019-02-11T05:33:42.630Z,4.30
2019-02-11T05:34:42.582Z,4.50
2019-02-11T05:35:42.656Z,4.50
2019-02-11T05:36:42.522Z,4.70
2019-02-11T05:37:44.147Z,4.60
2019-02-11T05:38:42.460Z,4.70
2019-02-11T05:39:42.464Z,5.10
2019-02-11T05:40:42.393Z,5.10
2019-02-11T05:41:42.491Z,5.00
2019-02-11T05:42:42.383Z,4.50
2019-02-11T05:43:42.324Z,4.80
2019-02-11T05:44:42.294Z,4.70
2019-02-11T05:45:42.242Z,4.70
2019-02-11T05:46:42.305Z,4.90
2019-02-11T05:47:42.183Z,5.20
2019-02-11T05:48:42.154Z,4.50
2019-02-11T05:49:42.221Z,4.50
2019-02-11T05:50:42.093Z,5.10
2019-02-11T05:51:42.141Z,5.20
2019-02-11T05:52:42.029Z,4.60
2019-02-11T05:53:41.992Z,4.90
2019-02-11T05:54:41.962Z,4.80
2019-02-11T05:55:41.971Z,5.00
2019-02-11T05:56:41.900Z,4.60
2019-02-11T05:57:42.003Z,4.60
2019-02-11T05:58:41.841Z,5.40
2019-02-11T05:59:41.814Z,5.00
2019-02-11T06:00:41.911Z,4.80
2019-02-11T06:01:41.751Z,5.00
2019-02-11T06:02:41.821Z,5.00
2019-02-11T06:03:41.694Z,5.20
2019-02-11T06:04:41.667Z,5.90
2019-02-11T06:05:41.621Z,5.30
2019-02-11T06:06:41.661Z,5.40
2019-02-11T06:07:41.579Z,5.40
2019-02-11T06:08:41.691Z,5.60
2019-02-11T06:09:41.501Z,5.90
2019-02-11T06:10:41.481Z,5.70
2019-02-11T06:11:41.583Z,5.60
2019-02-11T06:12:41.411Z,5.80
2019-02-11T06:13:41.491Z,5.60
2019-02-11T06:14:41.353Z,5.30
2019-02-11T06:15:41.402Z,5.70
2019-02-11T06:16:41.280Z,5.80
2019-02-11T06:17:41.322Z,6.10
2019-02-11T06:18:41.223Z,5.70
2019-02-11T06:19:41.321Z,6.40
2019-02-11T06:20:41.171Z,6.00
2019-02-11T06:21:41.130Z,6.00
2019-02-11T06:22:41.128Z,6.20
2019-02-11T06:23:41.164Z,6.30
2019-02-11T06:24:41.058Z,5.80
2019-02-11T06:25:41.163Z,5.60
2019-02-11T06:26:40.971Z,5.50
2019-02-11T06:27:40.939Z,5.70
2019-02-11T06:28:40.990Z,5.80
2019-02-11T06:29:40.881Z,6.30
2019-02-11T06:30:40.990Z,5.80
2019-02-11T06:31:40.810Z,6.10
2019-02-11T06:32:40.782Z,5.80
2019-02-11T06:33:40.772Z,6.20
2019-02-11T06:34:40.819Z,6.00
2019-02-11T06:35:40.699Z,5.90
2019-02-11T06:36:40.842Z,6.20
2019-02-11T06:37:40.645Z,6.00
2019-02-11T06:38:40.603Z,6.00
2019-02-11T06:39:40.657Z,6.30
2019-02-11T06:40:40.520Z,6.30
2019-02-11T06:41:40.660Z,6.40
2019-02-11T06:42:40.475Z,6.00
2019-02-11T06:43:40.450Z,5.90
2019-02-11T06:44:40.409Z,5.50
2019-02-11T06:45:40.490Z,6.10
2019-02-11T06:46:40.350Z,6.20
2019-02-11T06:47:40.499Z,6.60
2019-02-11T06:48:40.292Z,5.90
2019-02-11T06:49:40.260Z,6.30
2019-02-11T06:50:40.310Z,5.90
2019-02-11T06:51:40.201Z,6.50
2019-02-11T06:52:40.350Z,6.40
2019-02-11T06:53:40.142Z,6.00
2019-02-11T06:54:40.112Z,6.30
2019-02-11T06:55:40.072Z,6.50
2019-02-11T06:56:40.149Z,6.80
2019-02-11T06:57:40.023Z,6.20
2019-02-11T06:58:40.109Z,6.60
2019-02-11T06:59:39.950Z,6.30
2019-02-11T07:00:39.923Z,6.20
2019-02-11T07:01:39.893Z,6.50
2019-02-11T07:02:39.989Z,6.30
2019-02-11T07:03:39.832Z,6.90
2019-02-11T07:04:39.910Z,7.00
2019-02-11T07:05:39.761Z,6.80
2019-02-11T07:06:39.926Z,6.50
2019-02-11T07:07:39.723Z,6.80
2019-02-11T07:08:39.841Z,6.70
2019-02-11T07:09:39.642Z,6.50
2019-02-11T07:10:39.743Z,6.60
2019-02-11T07:11:39.763Z,6.90
2019-02-11T07:12:39.553Z,5.90
2019-02-11T07:13:39.668Z,6.70
2019-02-11T07:14:39.489Z,6.30
2019-02-11T07:15:39.581Z,6.60
2019-02-11T07:16:39.432Z,6.70
2019-02-11T07:17:39.390Z,6.80
2019-02-11T07:18:39.498Z,6.20
2019-02-11T07:19:39.332Z,6.80
2019-02-11T07:20:39.500Z,6.40
2019-02-11T07:21:39.300Z,6.20
2019-02-11T07:22:39.240Z,6.90
2019-02-11T07:23:39.210Z,6.70
2019-02-11T07:24:39.339Z,6.50
2019-02-11T07:25:39.151Z,6.80
2019-02-11T07:26:39.242Z,7.10
2019-02-11T07:27:39.092Z,6.80
2019-02-11T07:28:39.060Z,6.30
2019-02-11T07:29:39.161Z,6.50
2019-02-11T07:30:39.001Z,7.10
2019-02-11T07:31:39.169Z,7.00
2019-02-11T07:32:38.939Z,6.70
2019-02-11T07:33:38.911Z,6.80
2019-02-11T07:34:38.876Z,7.00
2019-02-11T07:35:39.002Z,7.10
2019-02-11T07:36:38.810Z,6.90
2019-02-11T07:37:38.923Z,7.20
2019-02-11T07:38:38.751Z,6.90
2019-02-11T07:39:38.720Z,6.60
2019-02-11T07:40:38.819Z,6.90
2019-02-11T07:41:38.663Z,7.00
2019-02-11T07:42:38.841Z,7.00
2019-02-11T07:43:38.603Z,7.50
2019-02-11T07:44:38.570Z,7.20
2019-02-11T07:45:38.539Z,7.40
2019-02-11T07:46:38.562Z,6.80
2019-02-11T07:47:38.471Z,7.50
2019-02-11T07:48:38.469Z,7.00
2019-02-11T07:49:38.409Z,6.90
2019-02-11T07:50:38.378Z,7.20
2019-02-11T07:51:42.417Z,6.90
2019-02-11T07:52:38.403Z,7.20
2019-02-11T07:53:38.301Z,7.10
2019-02-11T07:54:38.312Z,7.70
2019-02-11T07:55:38.230Z,7.10
2019-02-11T07:56:38.201Z,7.20
2019-02-11T07:57:38.242Z,7.70
2019-02-11T07:58:38.152Z,7.50
2019-02-11T07:59:38.141Z,7.20
2019-02-11T08:00:38.082Z,7.20
2019-02-11T08:01:38.053Z,7.60
2019-02-11T08:02:38.063Z,7.90
2019-02-11T08:03:37.991Z,7.70
2019-02-11T08:04:38.070Z,7.30
2019-02-11T08:05:37.932Z,7.60
2019-02-11T08:06:37.960Z,8.40
2019-02-11T08:07:37.861Z,7.60
2019-02-11T08:08:37.901Z,7.30
2019-02-11T08:09:37.801Z,7.30
2019-02-11T08:10:37.911Z,6.80
2019-02-11T08:11:37.740Z,7.30
2019-02-11T08:12:37.721Z,7.40
2019-02-11T08:13:37.732Z,7.30
2019-02-11T08:14:37.650Z,7.50
2019-02-11T08:15:38.813Z,7.50
2019-02-11T08:16:37.590Z,6.60
2019-02-11T08:17:37.652Z,7.40
2019-02-11T08:18:37.530Z,7.30
2019-02-11T08:19:37.565Z,6.70
2019-02-11T08:20:37.473Z,6.70
2019-02-11T08:21:37.581Z,7.80
2019-02-11T08:22:37.410Z,7.00
2019-02-11T08:23:37.385Z,7.30
2019-02-11T08:24:37.351Z,7.30
2019-02-11T08:25:37.403Z,7.00
2019-02-11T08:26:37.280Z,7.10
2019-02-11T08:27:37.312Z,7.10
2019-02-11T08:28:37.220Z,7.30
2019-02-11T08:29:37.190Z,7.00
2019-02-11T08:30:37.230Z,7.30
2019-02-11T08:31:37.139Z,7.10
2019-02-11T08:32:37.262Z,7.20
2019-02-11T08:33:37.069Z,7.70
2019-02-11T08:34:37.040Z,7.00
2019-02-11T08:35:37.009Z,7.30
2019-02-11T08:36:37.077Z,7.40
2019-02-11T08:37:36.961Z,7.20
2019-02-11T08:38:37.092Z,7.50
2019-02-11T08:39:36.894Z,7.50
2019-02-11T08:40:36.861Z,7.10
2019-02-11T08:41:36.831Z,7.10
2019-02-11T08:42:36.910Z,6.80
2019-02-11T08:43:36.771Z,7.30
2019-02-11T08:44:36.819Z,7.30
2019-02-11T08:45:36.711Z,7.50
2019-02-11T08:46:36.832Z,7.10
2019-02-11T08:47:36.649Z,7.20
2019-02-11T08:48:36.744Z,7.10
2019-02-11T08:49:36.592Z,7.40
2019-02-11T08:50:36.659Z,7.00
2019-02-11T08:51:36.663Z,6.80
2019-02-11T08:52:36.508Z,6.90
2019-02-11T08:53:36.573Z,7.10
2019-02-11T08:54:36.432Z,7.20
2019-02-11T08:55:36.490Z,6.70
2019-02-11T08:56:36.370Z,6.80
2019-02-11T08:57:36.339Z,7.10
2019-02-11T08:58:36.407Z,6.80
2019-02-11T08:59:36.280Z,7.30
2019-02-11T09:00:36.429Z,7.00
2019-02-11T09:01:36.221Z,7.10
2019-02-11T09:02:36.190Z,7.20
2019-02-11T09:03:36.189Z,7.30
2019-02-11T09:04:36.244Z,6.70
2019-02-11T09:05:36.100Z,7.30
2019-02-11T09:06:36.262Z,7.00
2019-02-11T09:07:36.049Z,7.00
2019-02-11T09:08:36.023Z,6.70
2019-02-11T09:09:35.986Z,6.90
2019-02-11T09:10:36.082Z,6.70
2019-02-11T09:11:35.943Z,6.70
2019-02-11T09:12:35.993Z,6.60
2019-02-11T09:13:36.003Z,7.10
2019-02-11T09:14:35.829Z,6.80
2019-02-11T09:15:35.831Z,7.10
2019-02-11T09:16:35.771Z,6.60
2019-02-11T09:17:35.851Z,6.70
2019-02-11T09:18:35.711Z,6.90
2019-02-11T09:19:35.702Z,7.20
2019-02-11T09:20:35.761Z,6.80
2019-02-11T09:21:35.634Z,6.80
2019-02-11T09:22:35.670Z,6.40
2019-02-11T09:23:35.574Z,7.10
2019-02-11T09:24:35.543Z,7.50
2019-02-11T09:25:35.511Z,7.00
2019-02-11T09:26:35.502Z,7.00
2019-02-11T09:27:35.452Z,6.50
2019-02-11T09:28:35.507Z,7.20
2019-02-11T09:29:35.393Z,7.00
2019-02-11T09:30:35.359Z,6.70
2019-02-11T09:31:35.420Z,7.00
2019-02-11T09:32:35.302Z,7.00
2019-02-11T09:33:35.330Z,6.90
2019-02-11T09:34:35.251Z,7.10
2019-02-11T09:35:35.232Z,6.60
2019-02-11T09:36:35.192Z,6.90
2019-02-11T09:37:36.723Z,6.70
2019-02-11T09:38:35.143Z,5.90
2019-02-11T09:39:35.182Z,6.00
2019-02-11T09:40:35.082Z,6.00
2019-02-11T09:41:35.082Z,6.10
2019-02-11T09:42:35.031Z,6.50
2019-02-11T09:43:35.092Z,6.50
2019-02-11T09:44:34.985Z,6.10
2019-02-11T09:45:35.000Z,7.00
2019-02-11T09:46:34.943Z,6.30
2019-02-11T09:47:34.921Z,5.70
2019-02-11T09:48:34.913Z,5.70
2019-02-11T09:49:34.862Z,5.30
2019-02-11T09:50:34.932Z,5.70
2019-02-11T09:51:34.932Z,5.10
2019-02-11T09:52:34.802Z,5.70
2019-02-11T09:53:34.843Z,5.50
2019-02-11T09:56:06.583Z,5.40
2019-02-11T09:57:06.551Z,5.30
2019-02-11T09:59:10.621Z,5.40
2019-02-11T10:00:10.505Z,5.00
2019-02-11T10:02:03.452Z,5.30
2019-02-11T10:03:03.377Z,4.80
2019-02-11T10:05:07.821Z,5.00
2019-02-11T10:06:07.846Z,4.80
2019-02-11T10:08:11.859Z,5.00
2019-02-11T10:09:11.863Z,5.00
2019-02-11T10:11:15.912Z,4.70
2019-02-11T10:12:21.246Z,4.80
2019-02-11T10:14:19.922Z,5.00
2019-02-11T10:15:19.831Z,4.70
2019-02-11T10:17:29.716Z,5.10
2019-02-11T10:18:23.841Z,4.80
2019-02-11T10:20:27.950Z,4.70
2019-02-11T10:21:27.866Z,5.00
2019-02-11T10:23:31.972Z,4.90
2019-02-11T10:24:31.873Z,4.80
2019-02-11T10:26:35.982Z,4.60
2019-02-11T10:27:35.891Z,5.00
2019-02-11T10:29:39.940Z,4.90
2019-02-11T10:30:39.903Z,5.10
2019-02-11T10:32:32.791Z,4.90
2019-02-11T10:33:32.822Z,4.40
2019-02-11T10:35:42.071Z,4.60
2019-02-11T10:36:36.772Z,4.50
2019-02-11T10:38:40.823Z,4.70
2019-02-11T10:39:40.863Z,4.80
2019-02-11T10:41:44.906Z,4.60
2019-02-11T10:42:44.804Z,4.70
2019-02-11T10:44:48.858Z,4.90
2019-02-11T10:45:48.822Z,4.80
2019-02-11T10:47:52.824Z,4.50
2019-02-11T10:48:52.733Z,5.10
2019-02-11T10:50:56.842Z,5.10
2019-02-11T10:51:56.802Z,4.90
2019-02-11T10:54:00.851Z,4.40
2019-02-11T10:55:00.773Z,4.60
2019-02-11T10:57:04.713Z,4.40
2019-02-11T10:58:04.676Z,5.10
2019-02-11T11:00:08.710Z,4.40
2019-02-11T11:01:08.758Z,4.50
2019-02-11T11:03:12.702Z,4.50
2019-02-11T11:04:12.602Z,4.30
2019-02-11T11:06:16.602Z,4.60
2019-02-11T11:07:16.512Z,4.10
2019-02-11T11:09:20.520Z,4.60
2019-02-11T11:10:20.420Z,4.20
2019-02-11T11:12:13.387Z,4.40
2019-02-11T11:13:13.284Z,4.40
2019-02-11T11:15:17.393Z,4.10
2019-02-11T11:16:17.293Z,4.50
2019-02-11T11:18:21.316Z,4.50
2019-02-11T11:19:21.274Z,4.40
2019-02-11T11:21:25.318Z,4.50
2019-02-11T11:22:25.221Z,4.50
2019-02-11T11:24:29.162Z,4.50
2019-02-11T11:25:29.193Z,4.30
2019-02-11T11:27:33.241Z,4.50
2019-02-11T11:28:33.154Z,4.70
2019-02-11T11:30:37.155Z,4.40
2019-02-11T11:31:37.062Z,4.30
2019-02-11T11:33:41.072Z,4.20
2019-02-11T11:34:40.978Z,4.00
2019-02-11T11:36:44.981Z,4.50
2019-02-11T11:37:44.882Z,5.00
2019-02-11T11:39:48.905Z,5.10
2019-02-11T11:40:48.874Z,5.10
2019-02-11T11:42:41.744Z,5.00
2019-02-11T11:43:41.654Z,5.20
2019-02-11T11:45:45.591Z,5.60
2019-02-11T11:46:47.180Z,5.40
2019-02-11T11:48:49.574Z,5.60
2019-02-11T11:49:49.484Z,5.60
2019-02-11T11:51:53.426Z,4.80
2019-02-11T11:52:53.452Z,5.80
2019-02-11T11:54:57.393Z,5.30
2019-02-11T11:56:01.942Z,5.00
2019-02-11T11:58:01.310Z,5.50
2019-02-11T11:59:01.215Z,5.30
2019-02-11T12:01:05.242Z,5.50
2019-02-11T12:02:05.137Z,5.30
2019-02-11T12:04:09.356Z,5.70
2019-02-11T12:05:09.142Z,5.50
2019-02-11T12:07:13.156Z,5.00
2019-02-11T12:08:13.064Z,5.40
2019-02-11T12:10:17.067Z,5.60
2019-02-11T12:11:16.977Z,5.60
2019-02-11T12:13:23.337Z,5.00
2019-02-11T12:14:20.886Z,5.10
2019-02-11T12:16:24.826Z,5.40
2019-02-11T12:17:24.786Z,4.70
2019-02-11T12:19:28.811Z,4.70
2019-02-11T12:20:32.719Z,5.10
2019-02-11T12:22:21.661Z,4.60
2019-02-11T12:23:21.554Z,4.60
2019-02-11T12:25:25.731Z,4.40
2019-02-11T12:26:25.467Z,4.40
2019-02-11T12:28:29.510Z,4.20
2019-02-11T12:29:29.386Z,4.40
2019-02-11T12:31:33.504Z,4.60
2019-02-11T12:32:33.399Z,4.10
2019-02-11T12:34:37.413Z,4.10
2019-02-11T12:35:37.310Z,4.10
2019-02-11T12:37:41.321Z,3.40
2019-02-11T12:38:41.226Z,3.30
2019-02-11T12:40:45.241Z,3.40
2019-02-11T12:41:45.207Z,2.80
2019-02-11T12:43:49.157Z,2.90
2019-02-11T12:44:49.068Z,2.60
2019-02-11T12:46:53.098Z,2.60
2019-02-11T12:47:53.063Z,2.80
2019-02-11T12:49:57.088Z,2.40
2019-02-11T12:50:56.976Z,2.60
2019-02-11T12:53:01.110Z,2.50
2019-02-11T12:54:00.885Z,2.60
2019-02-11T12:56:04.903Z,2.40
2019-02-11T12:57:04.917Z,2.20
2019-02-11T12:59:08.746Z,2.10
2019-02-11T13:00:08.806Z,2.20
2019-02-11T13:02:01.666Z,2.50
2019-02-11T13:03:01.574Z,2.30
2019-02-11T13:05:05.584Z,2.60
2019-02-11T13:06:05.483Z,2.50
2019-02-11T13:08:09.486Z,3.00
2019-02-11T13:09:09.389Z,3.10
2019-02-11T13:11:13.424Z,3.30
2019-02-11T13:12:13.320Z,2.90
2019-02-11T13:14:18.336Z,3.10
2019-02-11T13:15:41.425Z,3.30
2019-02-11T13:17:33.324Z,3.40
2019-02-11T13:18:21.281Z,3.30
2019-02-11T13:20:25.167Z,3.10
2019-02-11T13:21:25.079Z,3.80
2019-02-11T13:23:29.071Z,3.40
2019-02-11T13:24:28.961Z,3.20
2019-02-11T13:26:33.074Z,3.80
2019-02-11T13:27:32.968Z,4.20
2019-02-11T13:29:36.997Z,3.50
2019-02-11T13:30:36.893Z,3.60
2019-02-11T13:32:29.768Z,3.80
2019-02-11T13:33:29.735Z,3.50
2019-02-11T13:35:33.745Z,2.70
2019-02-11T13:36:33.658Z,2.70
2019-02-11T13:38:37.599Z,2.20
2019-02-11T13:39:37.642Z,2.60
2019-02-11T13:41:41.565Z,2.90
2019-02-11T13:42:41.468Z,2.90
2019-02-11T13:44:45.486Z,2.70
2019-02-11T13:45:45.389Z,2.80
2019-02-11T13:47:54.829Z,2.90
2019-02-11T13:48:49.301Z,2.80
2019-02-11T13:50:53.309Z,2.90
2019-02-11T13:51:53.207Z,3.50
2019-02-11T13:53:57.236Z,3.40
2019-02-11T13:54:57.147Z,3.70
2019-02-11T13:57:01.134Z,2.80
2019-02-11T13:58:01.031Z,2.70
2019-02-11T14:00:05.051Z,2.90
2019-02-11T14:01:04.950Z,2.90
2019-02-11T14:03:08.970Z,3.10
2019-02-11T14:04:08.858Z,2.70
2019-02-11T14:06:12.860Z,2.90
2019-02-11T14:07:12.884Z,3.20
2019-02-11T14:09:16.781Z,3.10
2019-02-11T14:10:16.670Z,3.20
2019-02-11T14:12:09.635Z,3.20
2019-02-11T14:13:09.533Z,2.80
2019-02-11T14:15:13.546Z,3.00
2019-02-11T14:16:13.448Z,3.40
2019-02-11T14:18:17.439Z,3.00
2019-02-11T14:19:17.429Z,3.50
2019-02-11T14:21:21.375Z,3.00
2019-02-11T14:22:21.281Z,3.00
2019-02-11T14:24:25.232Z,2.70
2019-02-11T14:25:40.493Z,2.90
2019-02-11T14:27:29.213Z,2.90
2019-02-11T14:28:29.099Z,3.10
2019-02-11T14:30:33.126Z,2.50
2019-02-11T14:31:33.018Z,2.80
2019-02-11T14:33:37.123Z,2.90
2019-02-11T14:34:37.018Z,3.30
2019-02-11T14:36:43.356Z,2.90
2019-02-11T14:37:41.033Z,3.00
2019-02-11T14:39:45.156Z,3.70
2019-02-11T14:40:45.039Z,3.30
2019-02-11T14:42:38.102Z,3.70
2019-02-11T14:43:38.017Z,3.40
2019-02-11T14:45:42.125Z,3.70
2019-02-11T14:46:42.018Z,3.80
2019-02-11T14:48:46.130Z,3.70
2019-02-11T14:49:46.039Z,3.20
2019-02-11T14:51:50.152Z,3.40
2019-02-11T14:52:50.123Z,3.20
2019-02-11T14:54:54.161Z,3.60
2019-02-11T14:55:54.063Z,3.50
2019-02-11T14:57:58.193Z,3.80
2019-02-11T14:58:58.072Z,3.40
2019-02-11T15:01:02.207Z,3.50
2019-02-11T15:02:02.093Z,3.30
2019-02-11T15:04:06.142Z,3.30
2019-02-11T15:05:06.183Z,3.10
2019-02-11T15:07:10.332Z,3.10
2019-02-11T15:08:10.122Z,3.50
2019-02-11T15:10:14.352Z,3.20